createdAt,value
2019-03-15T00:00:29.867Z,0
2019-03-15T00:01:28.460Z,0
2019-03-15T00:02:27.251Z,0
2019-03-15T00:03:26.092Z,0
2019-03-15T00:04:24.728Z,0
2019-03-15T00:05:23.381Z,0
2019-03-15T00:06:22.145Z,0
2019-03-15T00:07:20.901Z,0
2019-03-15T00:08:19.639Z,0
2019-03-15T00:09:18.264Z,0
2019-03-15T00:10:16.915Z,0
2019-03-15T00:11:15.538Z,0
2019-03-15T00:12:14.332Z,0
2019-03-15T00:13:13.060Z,0
2019-03-15T00:14:11.858Z,0
2019-03-15T00:15:10.540Z,0
2019-03-15T00:16:09.085Z,0
2019-03-15T00:17:07.936Z,0
2019-03-15T00:18:06.596Z,0
2019-03-15T00:19:05.390Z,0
2019-03-15T00:20:04.070Z,0
2019-03-15T00:21:02.652Z,0
2019-03-15T00:22:01.662Z,0
2019-03-15T00:23:00.288Z,0
2019-03-15T00:23:58.971Z,0
2019-03-15T00:24:57.587Z,0
2019-03-15T00:25:56.259Z,0
2019-03-15T00:26:54.845Z,0
2019-03-15T00:27:53.772Z,0
2019-03-15T00:28:52.435Z,0
2019-03-15T00:29:51.027Z,0
2019-03-15T00:30:49.651Z,0
2019-03-15T00:31:48.189Z,0
2019-03-15T00:32:46.775Z,0
2019-03-15T00:33:45.394Z,0
2019-03-15T00:34:44.223Z,0
2019-03-15T00:35:42.838Z,0
2019-03-15T00:36:41.651Z,0
2019-03-15T00:37:40.308Z,0
2019-03-15T00:38:38.921Z,0
2019-03-15T00:39:37.754Z,0
2019-03-15T00:40:36.440Z,0
2019-03-15T00:41:35.126Z,0
2019-03-15T00:42:34.532Z,0
2019-03-15T00:43:32.487Z,0
2019-03-15T00:44:31.106Z,0
2019-03-15T00:45:29.825Z,0
2019-03-15T00:46:28.486Z,0
2019-03-15T00:47:27.078Z,0
2019-03-15T00:48:25.847Z,0
2019-03-15T00:49:24.399Z,0
2019-03-15T00:50:23.586Z,0
2019-03-15T00:51:22.219Z,0
2019-03-15T00:52:20.851Z,0
2019-03-15T00:53:19.426Z,0
2019-03-15T00:54:18.135Z,0
2019-03-15T00:55:16.807Z,0
2019-03-15T00:56:15.624Z,0
2019-03-15T00:57:14.265Z,0
2019-03-15T00:58:13.209Z,0
2019-03-15T00:59:11.651Z,0
2019-03-15T01:00:10.276Z,0
2019-03-15T01:01:08.956Z,0
2019-03-15T01:02:07.740Z,0
2019-03-15T01:03:06.400Z,0
2019-03-15T01:04:05.097Z,0
2019-03-15T01:05:03.692Z,0
2019-03-15T01:06:02.326Z,0
2019-03-15T01:07:00.913Z,0
2019-03-15T01:07:59.764Z,0
2019-03-15T01:08:58.404Z,0
2019-03-15T01:09:57.139Z,0
2019-03-15T01:10:56.348Z,0
2019-03-15T01:11:54.973Z,0
2019-03-15T01:12:53.681Z,0
2019-03-15T01:13:52.360Z,0
2019-03-15T01:14:50.964Z,0
2019-03-15T01:15:49.797Z,0
2019-03-15T01:16:48.446Z,0
2019-03-15T01:17:47.229Z,0
2019-03-15T01:18:45.871Z,0
2019-03-15T01:19:44.510Z,0
2019-03-15T01:20:43.331Z,0
2019-03-15T01:21:42.055Z,0
2019-03-15T01:22:40.662Z,0
2019-03-15T01:23:39.309Z,0
2019-03-15T01:24:37.969Z,0
2019-03-15T01:25:36.556Z,0
2019-03-15T01:26:35.157Z,0
2019-03-15T01:27:33.958Z,0
2019-03-15T01:28:32.687Z,0
2019-03-15T01:29:31.418Z,0
2019-03-15T01:30:30.207Z,0
2019-03-15T01:31:29.061Z,0
2019-03-15T01:32:27.862Z,0
2019-03-15T01:33:26.490Z,0
2019-03-15T01:34:25.113Z,0
2019-03-15T01:35:23.742Z,0
2019-03-15T01:36:22.418Z,0
2019-03-15T01:37:21.009Z,0
2019-03-15T01:38:19.743Z,0
2019-03-15T01:39:18.410Z,0
2019-03-15T01:40:17.126Z,0
2019-03-15T01:41:15.799Z,0
2019-03-15T01:42:14.550Z,0
2019-03-15T01:43:13.347Z,0
2019-03-15T01:44:11.884Z,0
2019-03-15T01:45:10.514Z,0
2019-03-15T01:46:09.117Z,0
2019-03-15T01:47:07.778Z,0
2019-03-15T01:48:06.424Z,0
2019-03-15T01:49:05.061Z,0
2019-03-15T01:50:03.687Z,0
2019-03-15T01:51:02.329Z,0
2019-03-15T01:52:00.976Z,0
2019-03-15T01:52:59.734Z,0
2019-03-15T01:53:58.344Z,0
2019-03-15T01:54:56.959Z,0
2019-03-15T01:55:55.704Z,0
2019-03-15T01:56:54.275Z,0
2019-03-15T01:57:53.019Z,0
2019-03-15T01:58:51.824Z,0
2019-03-15T01:59:50.442Z,0
2019-03-15T02:00:49.141Z,0
2019-03-15T02:01:47.954Z,0
2019-03-15T02:02:46.617Z,0
2019-03-15T02:03:45.407Z,0
2019-03-15T02:04:44.054Z,0
2019-03-15T02:05:42.664Z,0
2019-03-15T02:06:41.342Z,0
2019-03-15T02:07:40.117Z,0
2019-03-15T02:08:38.778Z,0
2019-03-15T02:09:37.462Z,0
2019-03-15T02:10:36.067Z,0
2019-03-15T02:11:34.735Z,0
2019-03-15T02:12:33.708Z,0
2019-03-15T02:13:32.458Z,0
2019-03-15T02:14:31.115Z,0
2019-03-15T02:15:29.781Z,0
2019-03-15T02:16:28.426Z,0
2019-03-15T02:19:08.727Z,0
2019-03-15T02:20:07.520Z,0
2019-03-15T02:21:06.161Z,0
2019-03-15T02:22:04.840Z,0
2019-03-15T02:23:03.664Z,0
2019-03-15T02:24:02.280Z,0
2019-03-15T02:25:00.950Z,0
2019-03-15T02:25:59.597Z,0
2019-03-15T02:26:58.259Z,0
2019-03-15T02:27:56.945Z,0
2019-03-15T02:28:55.765Z,0
2019-03-15T02:29:54.380Z,0
2019-03-15T02:30:53.137Z,0
2019-03-15T02:31:51.797Z,0
2019-03-15T02:34:32.242Z,0
2019-03-15T02:35:30.856Z,0
2019-03-15T02:36:29.589Z,0
2019-03-15T02:37:28.215Z,0
2019-03-15T02:38:27.134Z,0
2019-03-15T02:39:25.386Z,0
2019-03-15T02:47:22.563Z,0
2019-03-15T02:48:21.294Z,0
2019-03-15T02:49:20.040Z,0
2019-03-15T02:50:18.652Z,0
2019-03-15T02:51:17.337Z,0
2019-03-15T02:52:16.144Z,0
2019-03-15T02:53:14.782Z,0
2019-03-15T02:54:13.460Z,0
2019-03-15T02:55:12.153Z,0
2019-03-15T02:56:10.748Z,0
2019-03-15T02:57:09.393Z,0
2019-03-15T02:58:07.985Z,0
2019-03-15T02:59:06.604Z,0
2019-03-15T03:00:05.530Z,0
2019-03-15T03:01:04.143Z,0
2019-03-15T03:02:02.820Z,0
2019-03-15T03:03:01.480Z,0
2019-03-15T03:04:00.180Z,0
2019-03-15T03:04:58.931Z,0
2019-03-15T03:05:57.633Z,0
2019-03-15T03:06:56.260Z,0
2019-03-15T03:07:54.876Z,0
2019-03-15T03:08:53.535Z,0
2019-03-15T03:09:52.208Z,0
2019-03-15T03:10:50.793Z,0
2019-03-15T03:11:50.408Z,0
2019-03-15T03:12:48.322Z,0
2019-03-15T03:16:27.147Z,0
2019-03-15T03:17:25.758Z,0
2019-03-15T03:18:24.398Z,0
2019-03-15T03:19:23.164Z,0
2019-03-15T03:20:21.958Z,0
2019-03-15T03:21:20.565Z,0
2019-03-15T03:22:19.231Z,0
2019-03-15T03:23:17.879Z,0
2019-03-15T03:24:16.537Z,0
2019-03-15T03:25:17.196Z,0
2019-03-15T03:26:15.585Z,0
2019-03-15T03:27:14.275Z,0
2019-03-15T03:28:12.908Z,0
2019-03-15T03:29:11.613Z,0
2019-03-15T03:30:10.385Z,0
2019-03-15T03:31:08.994Z,0
2019-03-15T03:32:07.761Z,0
2019-03-15T03:33:06.368Z,0
2019-03-15T03:34:05.062Z,0
2019-03-15T03:35:03.809Z,0
2019-03-15T03:36:02.406Z,0
2019-03-15T03:37:01.071Z,0
2019-03-15T03:37:59.840Z,0
2019-03-15T03:38:58.482Z,0
2019-03-15T03:39:57.336Z,0
2019-03-15T03:40:56.575Z,0
2019-03-15T03:41:54.616Z,0
2019-03-15T03:42:53.421Z,0
2019-03-15T03:43:52.218Z,0
2019-03-15T03:44:50.841Z,0
2019-03-15T03:45:49.417Z,0
2019-03-15T03:46:47.981Z,0
2019-03-15T03:47:46.556Z,0
2019-03-15T03:48:45.184Z,0
2019-03-15T03:49:43.928Z,0
2019-03-15T03:50:43.449Z,0
2019-03-15T03:51:41.367Z,0
2019-03-15T03:52:41.676Z,0
2019-03-15T03:53:38.707Z,0
2019-03-15T03:54:37.612Z,0
2019-03-15T03:55:36.269Z,0
2019-03-15T03:56:34.945Z,0
2019-03-15T03:57:33.670Z,0
2019-03-15T03:58:32.312Z,0
2019-03-15T03:59:31.014Z,0
2019-03-15T04:03:10.211Z,0
2019-03-15T04:04:08.793Z,0
2019-03-15T04:05:07.643Z,0
2019-03-15T04:06:06.242Z,0
2019-03-15T04:07:04.992Z,0
2019-03-15T04:08:03.653Z,0
2019-03-15T04:17:29.041Z,0
2019-03-15T04:18:27.714Z,0
2019-03-15T04:20:44.710Z,0
2019-03-15T04:21:43.477Z,0
2019-03-15T04:22:42.302Z,0
2019-03-15T04:25:07.421Z,0
2019-03-15T04:26:06.052Z,0
2019-03-15T04:27:04.661Z,0
2019-03-15T04:28:03.480Z,0
2019-03-15T04:29:02.079Z,0
2019-03-15T04:44:06.418Z,0
2019-03-15T04:45:04.995Z,0
2019-03-15T04:46:03.868Z,0
2019-03-15T04:47:02.507Z,0
2019-03-15T04:48:01.085Z,0
2019-03-15T04:48:59.863Z,0
2019-03-15T04:49:58.501Z,0
2019-03-15T04:50:57.186Z,0
2019-03-15T04:51:55.924Z,0
2019-03-15T04:52:54.518Z,0
2019-03-15T04:53:53.165Z,0
2019-03-15T04:54:52.027Z,0
2019-03-15T04:55:50.620Z,0
2019-03-15T04:56:49.279Z,0
2019-03-15T04:57:47.968Z,0
2019-03-15T04:58:46.534Z,0
2019-03-15T04:59:45.128Z,0
2019-03-15T05:00:43.771Z,0
2019-03-15T05:01:42.364Z,0
2019-03-15T05:02:41.012Z,0
2019-03-15T05:03:39.762Z,0
2019-03-15T05:04:38.375Z,0
2019-03-15T05:05:38.078Z,0
2019-03-15T05:06:36.756Z,0
2019-03-15T05:07:35.356Z,0
2019-03-15T05:08:34.396Z,0
2019-03-15T05:09:33.126Z,0
2019-03-15T05:10:31.721Z,0
2019-03-15T05:11:30.449Z,0
2019-03-15T05:12:29.001Z,0
2019-03-15T05:13:27.683Z,0
2019-03-15T05:14:26.342Z,0
2019-03-15T05:15:24.938Z,0
2019-03-15T05:16:23.732Z,0
2019-03-15T05:17:22.336Z,0
2019-03-15T05:18:20.947Z,0
2019-03-15T05:19:19.531Z,0
2019-03-15T05:20:20.954Z,0
2019-03-15T05:21:16.827Z,0
2019-03-15T05:22:15.560Z,0
2019-03-15T05:23:14.228Z,0
2019-03-15T05:24:12.807Z,0
2019-03-15T05:25:11.432Z,4
2019-03-15T05:26:10.047Z,4
2019-03-15T05:27:08.764Z,0
2019-03-15T05:28:07.517Z,4
2019-03-15T05:29:06.109Z,4
2019-03-15T05:30:04.825Z,4
2019-03-15T05:31:03.645Z,4
2019-03-15T05:32:02.216Z,4
2019-03-15T05:33:00.879Z,4
2019-03-15T05:33:59.784Z,8
2019-03-15T05:34:58.354Z,8
2019-03-15T05:35:56.997Z,8
2019-03-15T05:36:55.675Z,8
2019-03-15T05:37:54.289Z,12
2019-03-15T05:38:52.851Z,12
2019-03-15T05:39:51.796Z,12
2019-03-15T05:40:50.411Z,16
2019-03-15T05:41:49.139Z,16
2019-03-15T05:42:48.878Z,16
2019-03-15T05:43:47.849Z,20
2019-03-15T05:44:46.561Z,20
2019-03-15T05:45:45.230Z,24
2019-03-15T05:46:43.804Z,24
2019-03-15T05:47:42.747Z,24
2019-03-15T05:48:41.417Z,24
2019-03-15T05:49:40.121Z,24
2019-03-15T05:50:40.735Z,24
2019-03-15T05:51:37.476Z,28
2019-03-15T05:52:36.279Z,36
2019-03-15T05:53:34.900Z,40
2019-03-15T05:54:33.854Z,44
2019-03-15T05:55:32.458Z,44
2019-03-15T05:56:31.047Z,44
2019-03-15T05:57:29.667Z,52
2019-03-15T05:58:28.353Z,52
2019-03-15T05:59:27.071Z,52
2019-03-15T06:00:25.857Z,64
2019-03-15T06:01:24.461Z,68
2019-03-15T06:02:23.242Z,72
2019-03-15T06:03:21.986Z,80
2019-03-15T06:04:20.558Z,72
2019-03-15T06:05:19.249Z,64
2019-03-15T06:06:17.952Z,80
2019-03-15T06:07:16.575Z,96
2019-03-15T06:08:15.149Z,104
2019-03-15T06:09:13.806Z,96
2019-03-15T06:10:12.370Z,112
2019-03-15T06:11:11.226Z,120
2019-03-15T06:12:10.320Z,128
2019-03-15T06:13:08.983Z,132
2019-03-15T06:14:07.743Z,136
2019-03-15T06:15:06.393Z,140
2019-03-15T06:16:05.073Z,148
2019-03-15T06:17:03.704Z,152
2019-03-15T06:18:02.453Z,164
2019-03-15T06:19:01.272Z,176
2019-03-15T06:20:00.005Z,192
2019-03-15T06:20:58.777Z,200
2019-03-15T06:21:57.475Z,208
2019-03-15T06:22:56.135Z,220
2019-03-15T06:23:54.793Z,228
2019-03-15T06:24:53.543Z,232
2019-03-15T06:25:52.157Z,232
2019-03-15T06:26:50.861Z,232
2019-03-15T06:27:49.501Z,200
2019-03-15T06:28:48.157Z,192
2019-03-15T06:29:46.852Z,216
2019-03-15T06:30:46.091Z,196
2019-03-15T06:31:44.994Z,180
2019-03-15T06:32:43.920Z,220
2019-03-15T06:33:42.577Z,252
2019-03-15T06:34:41.356Z,264
2019-03-15T06:35:40.000Z,268
2019-03-15T06:36:38.975Z,272
2019-03-15T06:37:37.566Z,284
2019-03-15T06:38:36.316Z,296
2019-03-15T06:39:35.121Z,308
2019-03-15T06:40:33.875Z,312
2019-03-15T06:41:32.488Z,316
2019-03-15T06:42:31.073Z,312
2019-03-15T06:43:29.640Z,300
2019-03-15T06:44:28.311Z,300
2019-03-15T06:45:27.032Z,312
2019-03-15T06:48:11.502Z,380
2019-03-15T06:49:10.169Z,416
2019-03-15T06:50:08.824Z,440
2019-03-15T06:51:09.181Z,460
2019-03-15T06:52:06.210Z,492
2019-03-15T06:53:04.813Z,516
2019-03-15T06:54:11.125Z,540
2019-03-15T07:17:01.553Z,644
2019-03-15T07:18:00.135Z,616
2019-03-15T07:18:58.778Z,588
2019-03-15T07:19:57.726Z,540
2019-03-15T07:20:56.344Z,512
2019-03-15T07:21:55.150Z,524
2019-03-15T07:22:53.684Z,572
2019-03-15T07:23:52.346Z,584
2019-03-15T07:24:50.896Z,592
2019-03-15T07:25:49.762Z,612
2019-03-15T07:26:48.382Z,636
2019-03-15T07:27:47.144Z,612
2019-03-15T07:28:45.782Z,572
2019-03-15T07:29:44.504Z,568
2019-03-15T07:30:43.375Z,552
2019-03-15T07:31:42.167Z,584
2019-03-15T07:32:40.716Z,672
2019-03-15T07:33:39.481Z,736
2019-03-15T07:34:38.250Z,852
2019-03-15T07:35:36.854Z,1048
2019-03-15T07:36:37.221Z,1124
2019-03-15T07:37:34.268Z,1168
2019-03-15T07:38:32.986Z,1068
2019-03-15T07:39:31.751Z,944
2019-03-15T07:40:30.361Z,956
2019-03-15T07:41:28.974Z,1116
2019-03-15T07:42:27.594Z,1168
2019-03-15T07:43:26.283Z,1252
2019-03-15T07:44:24.892Z,1348
2019-03-15T07:45:24.570Z,1456
2019-03-15T07:46:23.151Z,1488
2019-03-15T07:47:21.997Z,1556
2019-03-15T07:48:22.605Z,1516
2019-03-15T07:49:19.447Z,1480
2019-03-15T07:50:18.107Z,1468
2019-03-15T07:51:16.730Z,1420
2019-03-15T07:52:15.374Z,1368
2019-03-15T07:53:14.065Z,1316
2019-03-15T07:54:12.667Z,1160
2019-03-15T07:55:11.271Z,936
2019-03-15T07:56:10.031Z,872
2019-03-15T07:57:08.640Z,1076
2019-03-15T07:58:07.585Z,1172
2019-03-15T07:59:06.078Z,1048
2019-03-15T08:00:04.723Z,984
2019-03-15T08:01:03.408Z,900
2019-03-15T08:02:02.095Z,884
2019-03-15T08:03:00.664Z,900
2019-03-15T08:03:59.337Z,892
2019-03-15T08:04:57.925Z,1104
2019-03-15T08:05:56.548Z,1488
2019-03-15T08:06:55.324Z,1480
2019-03-15T08:07:53.939Z,1160
2019-03-15T08:08:52.562Z,1132
2019-03-15T08:09:51.292Z,948
2019-03-15T08:10:49.920Z,792
2019-03-15T08:11:48.478Z,840
2019-03-15T08:12:49.489Z,1060
2019-03-15T08:13:45.887Z,1140
2019-03-15T08:14:44.573Z,1060
2019-03-15T08:15:43.335Z,1192
2019-03-15T08:16:42.008Z,1292
2019-03-15T08:17:40.718Z,1184
2019-03-15T08:18:39.471Z,1132
2019-03-15T08:19:38.175Z,1120
2019-03-15T08:20:36.874Z,1164
2019-03-15T08:21:35.505Z,1180
2019-03-15T08:22:34.096Z,1412
2019-03-15T08:23:32.790Z,1280
2019-03-15T08:24:31.415Z,1292
2019-03-15T08:25:30.131Z,1432
2019-03-15T08:26:30.131Z,1680
2019-03-15T08:27:27.324Z,1804
2019-03-15T08:28:26.025Z,1392
2019-03-15T08:29:24.742Z,1596
2019-03-15T08:30:23.387Z,1792
2019-03-15T08:31:23.373Z,1624
2019-03-15T08:32:20.694Z,1684
2019-03-15T08:33:19.387Z,1568
2019-03-15T08:34:18.091Z,1600
2019-03-15T08:35:16.798Z,1532
2019-03-15T08:36:15.418Z,1712
2019-03-15T08:37:14.196Z,1684
2019-03-15T08:38:12.832Z,1796
2019-03-15T08:39:11.480Z,1896
2019-03-15T08:40:10.232Z,1744
2019-03-15T08:41:08.947Z,1652
2019-03-15T08:42:07.817Z,1568
2019-03-15T08:43:06.398Z,1848
2019-03-15T08:44:05.115Z,1920
2019-03-15T08:45:03.827Z,1932
2019-03-15T08:46:03.043Z,2036
2019-03-15T08:47:01.253Z,2004
2019-03-15T08:47:59.975Z,2060
2019-03-15T08:48:58.623Z,2120
2019-03-15T08:49:57.396Z,1776
2019-03-15T08:50:56.003Z,2044
2019-03-15T08:52:03.554Z,2492
2019-03-15T08:52:54.182Z,2296
2019-03-15T08:53:52.297Z,1940
2019-03-15T08:55:04.195Z,2500
2019-03-15T08:55:50.471Z,3048
2019-03-15T08:56:49.105Z,3156
2019-03-15T08:57:47.941Z,3176
2019-03-15T08:58:46.677Z,2940
2019-03-15T08:59:54.096Z,2712
2019-03-15T09:00:43.996Z,2812
2019-03-15T09:01:42.574Z,2796
2019-03-15T09:02:41.102Z,2936
2019-03-15T09:03:40.062Z,2688
2019-03-15T09:04:38.736Z,2468
2019-03-15T09:05:37.564Z,2348
2019-03-15T09:06:36.195Z,2632
2019-03-15T09:07:34.865Z,2664
2019-03-15T09:08:33.541Z,2444
2019-03-15T09:09:32.245Z,2216
2019-03-15T09:12:17.717Z,1968
2019-03-15T09:13:16.379Z,1976
2019-03-15T09:14:15.148Z,2468
2019-03-15T09:15:14.011Z,2332
2019-03-15T09:16:12.652Z,2212
2019-03-15T09:17:11.302Z,2196
2019-03-15T09:18:10.167Z,2268
2019-03-15T09:20:50.631Z,2800
2019-03-15T09:21:49.282Z,2796
2019-03-15T09:22:48.070Z,2892
2019-03-15T09:23:46.770Z,2500
2019-03-15T09:24:45.478Z,2700
2019-03-15T09:25:44.114Z,2336
2019-03-15T09:26:42.875Z,2892
2019-03-15T09:27:44.943Z,2880
2019-03-15T09:28:40.175Z,2584
2019-03-15T09:29:38.760Z,2632
2019-03-15T09:30:37.630Z,2780
2019-03-15T09:31:46.887Z,2704
2019-03-15T09:32:34.925Z,2640
2019-03-15T09:33:33.747Z,2564
2019-03-15T09:34:32.407Z,2544
2019-03-15T09:35:31.024Z,2488
2019-03-15T09:36:29.808Z,2732
2019-03-15T09:37:28.420Z,2528
2019-03-15T09:38:26.981Z,2604
2019-03-15T09:39:25.801Z,2316
2019-03-15T09:40:25.821Z,2508
2019-03-15T09:41:31.317Z,2280
2019-03-15T09:42:21.766Z,2536
2019-03-15T09:43:20.428Z,2516
2019-03-15T09:44:19.196Z,2840
2019-03-15T09:45:18.369Z,2464
2019-03-15T09:46:17.095Z,3052
2019-03-15T09:47:16.004Z,2916
2019-03-15T09:48:14.675Z,3176
2019-03-15T09:49:13.296Z,3180
2019-03-15T09:50:21.753Z,2784
2019-03-15T09:51:10.856Z,2716
2019-03-15T09:52:09.628Z,2844
2019-03-15T09:53:08.258Z,3276
2019-03-15T09:54:06.857Z,4412
2019-03-15T09:55:05.566Z,4608
2019-03-15T09:56:04.302Z,4676
2019-03-15T09:57:03.037Z,4820
2019-03-15T09:58:01.966Z,4828
2019-03-15T09:59:00.652Z,3856
2019-03-15T09:59:59.218Z,4164
2019-03-15T10:00:58.657Z,3792
2019-03-15T10:01:56.761Z,3852
2019-03-15T10:02:56.085Z,3128
2019-03-15T10:03:54.164Z,3400
2019-03-15T10:04:52.817Z,3280
2019-03-15T10:05:51.448Z,2824
2019-03-15T10:06:50.267Z,3032
2019-03-15T10:07:48.837Z,3176
2019-03-15T10:08:47.601Z,3328
2019-03-15T10:09:46.517Z,3644
2019-03-15T10:10:44.781Z,3732
2019-03-15T10:11:43.599Z,3768
2019-03-15T10:12:42.242Z,2948
2019-03-15T10:13:40.840Z,2872
2019-03-15T10:14:40.322Z,3324
2019-03-15T10:15:39.005Z,3608
2019-03-15T10:16:37.708Z,3100
2019-03-15T10:17:36.326Z,3272
2019-03-15T10:18:34.902Z,3200
2019-03-15T10:19:33.493Z,2680
2019-03-15T10:20:32.263Z,2452
2019-03-15T10:21:30.894Z,2816
2019-03-15T10:22:29.829Z,2828
2019-03-15T10:23:28.495Z,2964
2019-03-15T10:24:27.106Z,2768
2019-03-15T10:25:25.948Z,2620
2019-03-15T10:26:24.602Z,2676
2019-03-15T10:27:23.326Z,2592
2019-03-15T10:28:21.956Z,2444
2019-03-15T10:29:20.632Z,2784
2019-03-15T10:30:19.226Z,2488
2019-03-15T10:31:18.072Z,2812
2019-03-15T10:32:16.728Z,2660
2019-03-15T10:33:15.420Z,2628
2019-03-15T10:34:13.992Z,2772
2019-03-15T10:35:12.651Z,3048
2019-03-15T10:36:11.347Z,2776
2019-03-15T10:37:10.126Z,2268
2019-03-15T10:38:08.741Z,2376
2019-03-15T10:39:07.488Z,1748
2019-03-15T10:40:06.086Z,2404
2019-03-15T10:41:04.679Z,2480
2019-03-15T10:42:04.020Z,2488
2019-03-15T10:43:02.679Z,2832
2019-03-15T10:44:04.022Z,2668
2019-03-15T10:45:00.136Z,3220
2019-03-15T10:45:58.668Z,2752
2019-03-15T10:46:57.669Z,2948
2019-03-15T10:47:56.245Z,2624
2019-03-15T10:48:54.909Z,2476
2019-03-15T10:49:53.686Z,2140
2019-03-15T10:50:52.283Z,2204
2019-03-15T10:51:50.991Z,2260
2019-03-15T10:52:49.622Z,2104
2019-03-15T10:53:48.187Z,2276
2019-03-15T10:54:46.813Z,2172
2019-03-15T10:55:45.408Z,2788
2019-03-15T10:56:44.207Z,2712
2019-03-15T10:57:42.806Z,2648
2019-03-15T10:58:41.426Z,2692
2019-03-15T10:59:40.206Z,2828
2019-03-15T11:00:38.816Z,2644
2019-03-15T11:01:37.461Z,2628
2019-03-15T11:02:36.109Z,2984
2019-03-15T11:03:34.731Z,2560
2019-03-15T11:04:33.957Z,2664
2019-03-15T11:05:32.507Z,2864
2019-03-15T11:06:31.059Z,2752
2019-03-15T11:07:29.605Z,2912
2019-03-15T11:08:28.371Z,3168
2019-03-15T11:09:27.091Z,2880
2019-03-15T11:10:26.203Z,2740
2019-03-15T11:11:24.754Z,2892
2019-03-15T11:12:23.367Z,3004
2019-03-15T11:13:22.038Z,3320
2019-03-15T11:14:20.604Z,3284
2019-03-15T11:15:19.265Z,2932
2019-03-15T11:16:18.085Z,2436
2019-03-15T11:17:16.780Z,2436
2019-03-15T11:18:15.317Z,2296
2019-03-15T11:19:15.580Z,2640
2019-03-15T11:20:12.855Z,3004
2019-03-15T11:22:53.352Z,2912
2019-03-15T11:23:52.026Z,2532
2019-03-15T11:24:50.640Z,2784
2019-03-15T11:25:49.299Z,2672
2019-03-15T11:26:48.131Z,2308
2019-03-15T11:27:46.886Z,2412
2019-03-15T11:28:45.710Z,2172
2019-03-15T11:32:16.691Z,2000
2019-03-15T11:33:15.420Z,2016
2019-03-15T11:34:14.042Z,2248
2019-03-15T11:35:12.624Z,2604
2019-03-15T11:36:11.304Z,2164
2019-03-15T11:37:10.037Z,1860
2019-03-15T11:38:08.667Z,1636
2019-03-15T11:39:07.414Z,2152
2019-03-15T11:40:06.112Z,1828
2019-03-15T11:41:04.674Z,1808
2019-03-15T11:42:03.283Z,1584
2019-03-15T11:43:01.949Z,1544
2019-03-15T11:44:00.623Z,1752
2019-03-15T11:44:59.408Z,1932
2019-03-15T11:45:58.055Z,1728
2019-03-15T11:46:56.817Z,2016
2019-03-15T11:49:57.584Z,2428
2019-03-15T11:50:56.257Z,2312
2019-03-15T11:51:54.976Z,1764
2019-03-15T11:52:53.616Z,2112
2019-03-15T11:53:52.229Z,1792
2019-03-15T11:56:27.446Z,1628
2019-03-15T11:57:26.154Z,1948
2019-03-15T11:58:24.729Z,1856
2019-03-15T11:59:23.470Z,1548
2019-03-15T12:00:22.172Z,1440
2019-03-15T12:01:21.063Z,1436
2019-03-15T12:02:19.811Z,1564
2019-03-15T12:03:18.473Z,1316
2019-03-15T12:04:17.117Z,1348
2019-03-15T12:05:15.793Z,1584
2019-03-15T12:06:14.460Z,1540
2019-03-15T12:07:13.026Z,1452
2019-03-15T12:08:12.220Z,1416
2019-03-15T12:09:10.851Z,1304
2019-03-15T12:10:09.880Z,1432
2019-03-15T12:11:08.546Z,1588
2019-03-15T12:12:07.200Z,1500
2019-03-15T12:13:05.896Z,1660
2019-03-15T12:14:04.587Z,1848
2019-03-15T12:15:03.935Z,1576
2019-03-15T12:16:02.602Z,1724
2019-03-15T12:17:01.119Z,1636
2019-03-15T12:18:00.003Z,2004
2019-03-15T12:18:58.694Z,1704
2019-03-15T12:19:57.455Z,2212
2019-03-15T12:20:55.999Z,2224
2019-03-15T12:22:05.531Z,1668
2019-03-15T12:22:53.507Z,1712
2019-03-15T12:23:52.142Z,1668
2019-03-15T12:24:50.747Z,1696
2019-03-15T12:25:49.431Z,1712
2019-03-15T12:26:48.086Z,1452
2019-03-15T12:27:47.201Z,1612
2019-03-15T12:28:45.967Z,1724
2019-03-15T12:29:44.679Z,1340
2019-03-15T12:30:43.397Z,1224
2019-03-15T12:33:23.619Z,1528
2019-03-15T12:34:22.232Z,1320
2019-03-15T12:35:20.877Z,1276
2019-03-15T12:36:19.554Z,1428
2019-03-15T12:38:59.784Z,1220
2019-03-15T12:39:58.400Z,1148
2019-03-15T12:40:57.042Z,1108
2019-03-15T12:41:56.017Z,1256
2019-03-15T12:42:54.650Z,1040
2019-03-15T12:43:53.405Z,1068
2019-03-15T13:07:22.619Z,2156
2019-03-15T13:08:21.263Z,2104
2019-03-15T13:09:20.030Z,2220
2019-03-15T13:10:18.690Z,2288
2019-03-15T13:11:17.344Z,2108
2019-03-15T13:12:16.379Z,1924
2019-03-15T13:13:15.088Z,2040
2019-03-15T13:14:13.876Z,1980
2019-03-15T13:15:12.534Z,1916
2019-03-15T13:16:11.176Z,2140
2019-03-15T13:17:10.040Z,2304
2019-03-15T13:18:08.653Z,2204
2019-03-15T13:19:07.573Z,2268
2019-03-15T13:20:06.208Z,1828
2019-03-15T13:21:04.907Z,1756
2019-03-15T13:22:03.646Z,1832
2019-03-15T13:23:02.410Z,1752
2019-03-15T13:24:00.963Z,2144
2019-03-15T13:25:00.294Z,2032
2019-03-15T13:25:58.833Z,2020
2019-03-15T13:27:06.788Z,2244
2019-03-15T13:27:56.252Z,2108
2019-03-15T13:28:55.032Z,2184
2019-03-15T13:29:53.779Z,2160
2019-03-15T13:30:52.393Z,2588
2019-03-15T13:31:51.067Z,2428
2019-03-15T13:32:49.675Z,2012
2019-03-15T13:33:48.363Z,2140
2019-03-15T13:34:47.180Z,2296
2019-03-15T13:35:45.885Z,1816
2019-03-15T13:36:44.462Z,1904
2019-03-15T13:37:43.477Z,2236
2019-03-15T13:38:41.735Z,1908
2019-03-15T13:39:40.361Z,1760
2019-03-15T13:40:38.930Z,1752
2019-03-15T13:41:37.700Z,1860
2019-03-15T13:42:36.376Z,1732
2019-03-15T13:43:35.279Z,1460
2019-03-15T13:44:33.918Z,1532
2019-03-15T13:45:32.749Z,1452
2019-03-15T13:46:31.471Z,1428
2019-03-15T13:47:30.496Z,1216
2019-03-15T13:48:29.851Z,1300
2019-03-15T13:49:28.461Z,1480
2019-03-15T13:50:27.188Z,1296
2019-03-15T13:51:25.893Z,1192
2019-03-15T13:52:24.476Z,1208
2019-03-15T13:53:23.339Z,1208
2019-03-15T13:54:22.084Z,1256
2019-03-15T13:55:20.690Z,1244
2019-03-15T13:56:19.589Z,1304
2019-03-15T13:57:21.309Z,1468
2019-03-15T13:58:17.149Z,1636
2019-03-15T13:59:15.738Z,1112
2019-03-15T14:00:14.472Z,1096
2019-03-15T14:01:13.981Z,1268
2019-03-15T14:03:54.345Z,1228
2019-03-15T14:04:53.131Z,1228
2019-03-15T14:05:52.099Z,1588
2019-03-15T14:06:50.779Z,1912
2019-03-15T14:07:50.067Z,1784
2019-03-15T14:08:48.749Z,1728
2019-03-15T14:09:47.737Z,2124
2019-03-15T14:10:49.415Z,1808
2019-03-15T14:11:45.999Z,1440
2019-03-15T14:12:45.411Z,1364
2019-03-15T14:13:44.979Z,1384
2019-03-15T14:14:44.135Z,1504
2019-03-15T14:15:42.780Z,1408
2019-03-15T14:16:41.428Z,1396
2019-03-15T14:17:40.278Z,1180
2019-03-15T14:18:38.805Z,1392
2019-03-15T14:19:37.488Z,1360
2019-03-15T14:20:36.174Z,1412
2019-03-15T14:21:34.776Z,1464
2019-03-15T14:22:33.759Z,1300
2019-03-15T14:23:32.455Z,1352
2019-03-15T14:24:31.090Z,1592
2019-03-15T14:25:30.798Z,1432
2019-03-15T14:26:29.379Z,1328
2019-03-15T14:27:37.164Z,1592
2019-03-15T14:28:26.856Z,1436
2019-03-15T14:29:25.438Z,1240
2019-03-15T14:30:24.208Z,1236
2019-03-15T14:31:22.809Z,1088
2019-03-15T14:32:40.739Z,1184
2019-03-15T14:34:04.880Z,1148
2019-03-15T14:35:03.865Z,1084
2019-03-15T14:36:03.938Z,1180
2019-03-15T14:41:24.285Z,896
2019-03-15T14:42:26.793Z,1024
2019-03-15T14:43:28.297Z,1004
2019-03-15T14:48:12.750Z,940
2019-03-15T14:50:53.222Z,1040
2019-03-15T14:51:52.064Z,940
2019-03-15T14:56:18.746Z,932
2019-03-15T15:02:08.689Z,940
2019-03-15T15:05:31.947Z,900
2019-03-15T15:14:22.162Z,868
2019-03-15T15:38:31.351Z,600
2019-03-15T15:39:30.416Z,548
2019-03-15T15:40:29.522Z,672
2019-03-15T15:43:10.647Z,496
2019-03-15T15:45:50.939Z,552
2019-03-15T15:47:56.349Z,488
2019-03-15T15:50:36.617Z,584
2019-03-15T15:51:36.073Z,576
2019-03-15T15:54:34.313Z,460
2019-03-15T15:58:50.611Z,508
2019-03-15T15:59:49.283Z,416
2019-03-15T16:00:47.911Z,376
2019-03-15T16:01:46.599Z,440
2019-03-15T16:02:45.233Z,432
2019-03-15T16:05:25.522Z,392
2019-03-15T16:10:17.580Z,488
2019-03-15T16:14:28.322Z,524
2019-03-15T16:15:27.182Z,476
2019-03-15T16:20:15.544Z,468
2019-03-15T16:21:29.267Z,476
2019-03-15T16:22:28.020Z,436
2019-03-15T16:23:30.267Z,400
2019-03-15T16:24:35.290Z,384
2019-03-15T16:25:34.015Z,456
2019-03-15T16:26:33.490Z,436
2019-03-15T16:28:10.064Z,412
2019-03-15T16:29:10.283Z,396
2019-03-15T16:31:51.159Z,372
2019-03-15T16:32:51.555Z,336
2019-03-15T16:33:50.469Z,304
2019-03-15T16:36:31.236Z,276
2019-03-15T16:38:35.330Z,248
2019-03-15T16:39:33.910Z,216
2019-03-15T16:44:15.162Z,276
2019-03-15T16:45:15.144Z,244
2019-03-15T16:46:12.678Z,204